createdAt,value
2018-05-08T00:01:17.636Z,81.20
2018-05-08T00:03:45.144Z,83.10
2018-05-08T00:06:13.803Z,82.00
2018-05-08T00:08:41.550Z,81.90
2018-05-08T00:11:11.168Z,82.40
2018-05-08T00:13:38.688Z,81.80
2018-05-08T00:16:06.399Z,82.40
2018-05-08T00:18:37.220Z,81.60
2018-05-08T00:21:08.086Z,82.60
2018-05-08T00:23:37.884Z,80.10
2018-05-08T00:26:05.427Z,80.90
2018-05-08T00:28:35.065Z,80.20
2018-05-08T00:31:04.678Z,81.50
2018-05-08T00:33:41.989Z,82.00
2018-05-08T00:36:10.708Z,82.60
2018-05-08T00:38:38.396Z,82.40
2018-05-08T00:41:08.002Z,82.80
2018-05-08T00:43:35.538Z,82.20
2018-05-08T00:46:03.283Z,82.00
2018-05-08T00:48:31.890Z,82.40
2018-05-08T00:51:10.427Z,82.60
2018-05-08T00:53:39.434Z,82.30
2018-05-08T00:56:08.131Z,83.00
2018-05-08T00:58:36.900Z,83.50
2018-05-08T01:01:04.598Z,83.20
2018-05-08T01:03:32.102Z,83.20
2018-05-08T01:05:59.792Z,83.30
2018-05-08T01:08:27.326Z,83.70
2018-05-08T01:10:58.998Z,82.90
2018-05-08T01:13:26.501Z,82.80
2018-05-08T01:15:54.249Z,84.50
2018-05-08T01:18:22.920Z,83.90
2018-05-08T01:20:50.406Z,84.50
2018-05-08T01:23:17.931Z,84.50
2018-05-08T01:25:48.650Z,85.30
2018-05-08T01:28:16.154Z,85.90
2018-05-08T01:30:48.501Z,86.10
2018-05-08T01:33:19.326Z,86.50
2018-05-08T01:35:46.862Z,86.70
2018-05-08T01:38:20.982Z,86.80
2018-05-08T01:40:50.644Z,86.80
2018-05-08T01:43:24.166Z,86.00
2018-05-08T01:45:51.706Z,85.90
2018-05-08T01:48:31.154Z,86.10
2018-05-08T01:50:58.912Z,86.00
2018-05-08T01:53:30.370Z,86.50
2018-05-08T01:56:08.018Z,86.80
2018-05-08T01:58:36.648Z,86.60
2018-05-08T02:01:14.830Z,86.80
2018-05-08T02:04:06.354Z,87.40
2018-05-08T02:06:47.478Z,87.50
2018-05-08T02:09:15.038Z,87.70
2018-05-08T02:11:48.614Z,87.50
2018-05-08T02:14:20.858Z,88.00
2018-05-08T02:16:53.988Z,87.90
2018-05-08T02:19:23.391Z,88.40
2018-05-08T02:21:52.873Z,88.90
2018-05-08T02:24:21.064Z,88.90
2018-05-08T02:26:54.579Z,88.40
2018-05-08T02:29:23.962Z,88.40
2018-05-08T02:31:53.482Z,88.80
2018-05-08T02:34:45.544Z,89.00
2018-05-08T02:37:13.861Z,89.00
2018-05-08T02:39:44.754Z,89.30
2018-05-08T02:42:24.952Z,89.50
2018-05-08T02:44:54.712Z,89.90
2018-05-08T02:47:22.218Z,90.20
2018-05-08T02:49:50.844Z,90.20
2018-05-08T02:52:18.424Z,90.30
2018-05-08T02:54:58.611Z,90.40
2018-05-08T02:57:33.486Z,90.50
2018-05-08T03:00:05.290Z,90.40
2018-05-08T03:02:38.559Z,90.60
2018-05-08T03:05:06.099Z,90.70
2018-05-08T03:07:33.753Z,90.60
2018-05-08T03:10:01.275Z,90.80
2018-05-08T03:12:29.936Z,90.80
2018-05-08T03:14:57.692Z,91.00
2018-05-08T03:17:25.434Z,91.10
2018-05-08T03:19:52.984Z,91.50
2018-05-08T03:22:20.713Z,91.40
2018-05-08T03:24:49.345Z,91.60
2018-05-08T03:27:20.198Z,91.50
2018-05-08T03:29:48.884Z,91.50
2018-05-08T03:32:21.282Z,91.60
2018-05-08T03:35:03.370Z,91.70
2018-05-08T03:37:30.925Z,91.70
2018-05-08T03:42:53.181Z,92.00
2018-05-08T03:45:26.454Z,92.10
2018-05-08T03:47:58.544Z,92.30
2018-05-08T03:50:45.218Z,92.30
2018-05-08T03:53:17.721Z,92.40
2018-05-08T03:55:45.242Z,92.40
2018-05-08T03:58:16.637Z,92.30
2018-05-08T04:03:49.702Z,92.30
2018-05-08T04:09:38.028Z,92.30
2018-05-08T04:12:06.397Z,92.40
2018-05-08T04:14:35.076Z,92.30
2018-05-08T04:17:08.080Z,92.20
2018-05-08T04:19:58.597Z,92.30
2018-05-08T04:22:30.966Z,92.40
2018-05-08T04:25:07.578Z,92.40
2018-05-08T04:27:38.464Z,92.60
2018-05-08T04:30:09.292Z,92.50
2018-05-08T04:32:40.150Z,92.50
2018-05-08T04:35:07.658Z,92.70
2018-05-08T04:37:35.342Z,92.70
2018-05-08T04:40:02.855Z,92.50
2018-05-08T04:42:30.574Z,92.50
2018-05-08T04:45:02.074Z,92.50
2018-05-08T04:47:29.826Z,92.50
2018-05-08T04:50:11.956Z,92.50
2018-05-08T04:52:45.360Z,92.50
2018-05-08T04:55:14.905Z,92.00
2018-05-08T04:57:53.988Z,92.10
2018-05-08T05:00:32.538Z,92.20
2018-05-08T05:03:05.838Z,92.40
2018-05-08T05:05:34.546Z,92.50
2018-05-08T05:08:02.042Z,92.50
2018-05-08T05:10:35.888Z,91.50
2018-05-08T05:13:05.518Z,90.80
2018-05-08T05:15:34.808Z,91.50
2018-05-08T05:18:03.542Z,91.20
2018-05-08T05:20:32.192Z,91.50
2018-05-08T05:23:00.878Z,90.80
2018-05-08T05:25:32.046Z,90.30
2018-05-08T05:28:06.498Z,90.70
2018-05-08T05:30:51.141Z,90.70
2018-05-08T05:33:18.658Z,90.60
2018-05-08T05:35:46.203Z,90.60
2018-05-08T05:38:14.832Z,90.80
2018-05-08T05:41:00.417Z,90.00
2018-05-08T05:43:31.528Z,87.90
2018-05-08T05:46:03.287Z,88.10
2018-05-08T05:48:36.303Z,87.10
2018-05-08T05:51:05.583Z,83.90
2018-05-08T05:53:33.107Z,83.80
2018-05-08T05:56:11.829Z,83.20
2018-05-08T05:59:03.625Z,83.00
2018-05-08T06:01:31.145Z,82.10
2018-05-08T06:03:58.832Z,83.30
2018-05-08T06:06:30.048Z,81.50
2018-05-08T06:09:01.431Z,81.20
2018-05-08T06:11:30.726Z,79.50
2018-05-08T06:14:01.879Z,79.50
2018-05-08T06:16:30.592Z,78.80
2018-05-08T06:18:58.377Z,77.60
2018-05-08T06:21:26.082Z,76.40
2018-05-08T06:23:57.594Z,75.70
2018-05-08T06:26:25.290Z,74.70
2018-05-08T06:28:56.728Z,76.30
2018-05-08T06:31:41.955Z,75.10
2018-05-08T06:34:31.034Z,73.60
2018-05-08T06:37:22.750Z,72.80
2018-05-08T06:39:54.155Z,72.70
2018-05-08T06:42:23.764Z,71.00
2018-05-08T06:44:53.372Z,71.00
2018-05-08T06:47:25.770Z,72.40
2018-05-08T06:49:58.434Z,72.10
2018-05-08T06:55:18.846Z,73.30
2018-05-08T06:57:51.863Z,70.50
2018-05-08T07:00:30.003Z,70.10
2018-05-08T07:03:22.733Z,70.90
2018-05-08T07:05:57.293Z,69.60
2018-05-08T07:08:32.653Z,70.30
2018-05-08T07:11:06.250Z,69.50
2018-05-08T07:13:34.960Z,67.40
2018-05-08T07:16:09.907Z,70.00
2018-05-08T07:21:29.958Z,66.70
2018-05-08T07:23:57.663Z,66.20
2018-05-08T07:26:27.296Z,67.40
2018-05-08T07:29:08.182Z,65.90
2018-05-08T07:31:40.330Z,65.90
2018-05-08T07:34:12.062Z,65.30
2018-05-08T07:36:52.096Z,65.20
2018-05-08T07:39:21.730Z,63.70
2018-05-08T07:42:02.337Z,62.00
2018-05-08T07:44:41.504Z,62.30
2018-05-08T07:47:20.982Z,61.70
2018-05-08T07:52:46.635Z,60.70
2018-05-08T07:58:07.964Z,61.40
2018-05-08T08:00:36.618Z,61.90
2018-05-08T08:03:05.332Z,59.30
2018-05-08T08:05:39.815Z,58.70
2018-05-08T08:08:09.473Z,59.60
2018-05-08T08:10:50.682Z,61.60
2018-05-08T08:13:18.204Z,59.00
2018-05-08T08:15:46.900Z,57.80
2018-05-08T08:18:16.502Z,59.30
2018-05-08T08:20:48.866Z,58.30
2018-05-08T08:23:18.491Z,56.00
2018-05-08T08:25:50.254Z,58.30
2018-05-08T08:28:18.614Z,59.50
2018-05-08T08:30:47.332Z,59.50
2018-05-08T08:33:14.840Z,57.10
2018-05-08T08:35:52.375Z,54.90
2018-05-08T08:38:21.041Z,55.00
2018-05-08T08:40:53.193Z,54.80
2018-05-08T08:43:28.222Z,55.00
2018-05-08T08:46:00.326Z,55.20
2018-05-08T08:48:36.347Z,55.30
2018-05-08T08:51:05.159Z,55.40
2018-05-08T08:56:25.491Z,53.80
2018-05-08T08:58:53.242Z,53.20
2018-05-08T09:01:35.697Z,53.40
2018-05-08T09:04:03.280Z,50.80
2018-05-08T09:06:43.625Z,52.40
2018-05-08T09:09:11.339Z,52.60
2018-05-08T09:11:43.737Z,51.20
2018-05-08T09:14:23.195Z,51.10
2018-05-08T09:16:55.557Z,52.60
2018-05-08T09:19:26.992Z,49.80
2018-05-08T09:21:55.211Z,50.60
2018-05-08T09:24:22.817Z,50.70
2018-05-08T09:26:50.337Z,52.20
2018-05-08T09:29:18.653Z,49.50
2018-05-08T09:31:46.145Z,49.50
2018-05-08T09:34:14.511Z,50.80
2018-05-08T09:36:42.012Z,51.10
2018-05-08T09:39:14.027Z,48.10
2018-05-08T09:41:41.540Z,49.20
2018-05-08T09:44:09.250Z,48.80
2018-05-08T09:46:38.857Z,47.60
2018-05-08T09:49:08.485Z,46.70
2018-05-08T09:51:39.937Z,48.30
2018-05-08T09:54:07.482Z,47.00
2018-05-08T09:56:35.129Z,46.70
2018-05-08T09:59:07.541Z,46.10
2018-05-08T10:01:37.731Z,45.80
2018-05-08T10:04:08.573Z,45.70
2018-05-08T10:06:48.001Z,45.40
2018-05-08T10:09:22.818Z,45.10
2018-05-08T10:11:51.549Z,46.20
2018-05-08T10:14:23.670Z,46.10
2018-05-08T10:16:51.392Z,42.90
2018-05-08T10:19:24.673Z,41.70
2018-05-08T10:21:53.365Z,41.60
2018-05-08T10:24:35.477Z,43.50
2018-05-08T10:27:05.226Z,44.00
2018-05-08T10:29:39.029Z,41.80
2018-05-08T10:32:07.453Z,41.90
2018-05-08T10:34:42.546Z,43.50
2018-05-08T10:37:18.328Z,46.80
2018-05-08T10:39:47.019Z,40.70
2018-05-08T10:42:25.835Z,40.80
2018-05-08T10:44:54.567Z,40.80
2018-05-08T10:47:34.573Z,40.80
2018-05-08T10:50:13.407Z,42.90
2018-05-08T10:55:51.291Z,39.00
2018-05-08T10:58:31.948Z,38.90
2018-05-08T11:01:17.860Z,39.90
2018-05-08T11:03:47.499Z,39.00
2018-05-08T11:06:15.003Z,37.30
2018-05-08T11:08:48.609Z,38.10
2018-05-08T11:11:16.346Z,37.40
2018-05-08T11:13:45.123Z,37.70
2018-05-08T11:16:12.815Z,36.40
2018-05-08T11:18:45.196Z,33.30
2018-05-08T11:21:12.919Z,33.30
2018-05-08T11:23:41.623Z,33.40
2018-05-08T11:26:19.209Z,34.80
2018-05-08T11:28:58.925Z,35.80
2018-05-08T11:31:26.429Z,36.30
2018-05-08T11:33:56.947Z,34.50
2018-05-08T11:36:35.464Z,33.40
2018-05-08T11:39:05.972Z,33.30
2018-05-08T11:41:34.752Z,31.10
2018-05-08T11:44:06.782Z,30.20
2018-05-08T11:46:47.408Z,30.10
2018-05-08T11:49:18.590Z,30.10
2018-05-08T11:51:49.111Z,31.30
2018-05-08T11:54:21.787Z,33.40
2018-05-08T11:57:02.679Z,31.10
2018-05-08T11:59:30.231Z,28.10
2018-05-08T12:02:01.670Z,28.00
2018-05-08T12:04:29.195Z,29.40
2018-05-08T12:06:56.892Z,32.00
2018-05-08T12:09:26.488Z,29.90
2018-05-08T12:11:55.217Z,30.90
2018-05-08T12:14:23.861Z,29.90
2018-05-08T12:16:55.041Z,29.90
2018-05-08T12:19:22.583Z,29.80
2018-05-08T12:21:50.258Z,28.90
2018-05-08T12:24:19.845Z,29.80
2018-05-08T12:27:02.307Z,31.80
2018-05-08T12:29:35.651Z,29.20
2018-05-08T12:32:03.199Z,28.90
2018-05-08T12:34:30.899Z,30.70
2018-05-08T12:37:06.631Z,31.30
2018-05-08T12:39:40.835Z,30.40
2018-05-08T12:42:14.154Z,29.50
2018-05-08T12:44:41.681Z,30.20
2018-05-08T12:47:11.215Z,30.00
2018-05-08T12:49:44.227Z,29.10
2018-05-08T12:52:33.218Z,32.00
2018-05-08T12:55:12.567Z,30.10
2018-05-08T12:57:45.340Z,29.20
2018-05-08T13:00:13.118Z,31.30
2018-05-08T13:02:58.253Z,30.50
2018-05-08T13:05:29.480Z,32.40
2018-05-08T13:08:08.586Z,31.30
2018-05-08T13:10:36.103Z,29.60
2018-05-08T13:13:16.961Z,28.20
2018-05-08T13:15:57.045Z,31.50
2018-05-08T13:18:35.888Z,31.00
2018-05-08T13:21:03.416Z,31.70
2018-05-08T13:23:31.137Z,31.20
2018-05-08T13:26:11.169Z,32.10
2018-05-08T13:31:55.006Z,29.30
2018-05-08T13:34:27.327Z,29.30
2018-05-08T13:36:59.436Z,29.50
2018-05-08T13:39:43.680Z,31.70
2018-05-08T13:42:13.995Z,29.70
2018-05-08T13:44:42.659Z,29.60
2018-05-08T13:47:15.370Z,29.70
2018-05-08T13:49:56.235Z,30.90
2018-05-08T13:52:25.627Z,31.70
2018-05-08T13:55:13.106Z,31.60
2018-05-08T13:57:43.953Z,30.20
2018-05-08T14:00:11.635Z,29.50
2018-05-08T14:02:39.141Z,30.70
2018-05-08T14:05:07.804Z,28.80
2018-05-08T14:07:53.005Z,30.20
2018-05-08T14:10:20.561Z,30.80
2018-05-08T14:12:55.630Z,29.70
2018-05-08T14:15:26.914Z,32.10
2018-05-08T14:18:02.233Z,30.80
2018-05-08T14:20:36.156Z,29.90
2018-05-08T14:23:05.619Z,29.30
2018-05-08T14:25:37.872Z,30.20
2018-05-08T14:28:08.710Z,31.10
2018-05-08T14:30:46.887Z,32.10
2018-05-08T14:33:20.233Z,30.30
2018-05-08T14:35:47.941Z,30.00
2018-05-08T14:38:17.564Z,31.50
2018-05-08T14:40:45.095Z,29.90
2018-05-08T14:43:14.018Z,30.60
2018-05-08T14:45:47.945Z,31.60
2018-05-08T14:48:16.323Z,33.10
2018-05-08T14:50:52.682Z,33.00
2018-05-08T14:53:32.101Z,32.30
2018-05-08T14:56:09.984Z,32.80
2018-05-08T14:58:37.526Z,30.10
2018-05-08T15:01:13.223Z,31.80
2018-05-08T15:03:52.073Z,31.10
2018-05-08T15:06:30.568Z,31.40
2018-05-08T15:09:01.731Z,30.10
2018-05-08T15:11:31.041Z,31.40
2018-05-08T15:14:07.997Z,31.30
2018-05-08T15:16:35.510Z,33.00
2018-05-08T15:19:04.173Z,32.80
2018-05-08T15:21:31.785Z,32.60
2018-05-08T15:23:59.389Z,30.90
2018-05-08T15:26:31.152Z,30.60
2018-05-08T15:29:01.425Z,27.70
2018-05-08T15:31:31.034Z,27.70
2018-05-08T15:33:59.671Z,29.80
2018-05-08T15:36:29.273Z,30.20
2018-05-08T15:39:02.584Z,31.20
2018-05-08T15:41:30.358Z,29.00
2018-05-08T15:44:02.078Z,29.40
2018-05-08T15:46:32.624Z,29.20
2018-05-08T15:49:05.295Z,30.10
2018-05-08T15:51:39.846Z,29.10
2018-05-08T15:54:07.620Z,29.30
2018-05-08T15:56:36.068Z,32.10
2018-05-08T15:59:14.490Z,32.00
2018-05-08T16:01:46.530Z,29.80
2018-05-08T16:04:19.834Z,29.80
2018-05-08T16:06:54.678Z,31.40
2018-05-08T16:09:23.358Z,30.70
2018-05-08T16:11:58.184Z,34.20
2018-05-08T16:14:27.835Z,32.50
2018-05-08T16:16:55.563Z,33.90
2018-05-08T16:19:33.774Z,34.40
2018-05-08T16:22:01.333Z,34.40
2018-05-08T16:24:29.027Z,31.00
2018-05-08T16:26:57.719Z,33.00
2018-05-08T16:29:29.177Z,32.80
2018-05-08T16:32:00.927Z,30.80
2018-05-08T16:34:39.089Z,31.90
2018-05-08T16:37:10.304Z,32.60
2018-05-08T16:39:38.941Z,33.30
2018-05-08T16:42:27.340Z,29.70
2018-05-08T16:44:58.124Z,30.00
2018-05-08T16:47:30.813Z,31.70
2018-05-08T16:49:58.331Z,33.90
2018-05-08T16:52:26.953Z,30.40
2018-05-08T16:54:59.171Z,32.40
2018-05-08T16:57:33.505Z,33.10
2018-05-08T17:00:03.201Z,33.10
2018-05-08T17:02:31.848Z,34.30
2018-05-08T17:05:06.983Z,34.70
2018-05-08T17:07:55.101Z,33.60
2018-05-08T17:10:23.811Z,32.90
2018-05-08T17:12:57.314Z,32.20
2018-05-08T17:15:24.821Z,32.20
2018-05-08T17:17:53.532Z,32.00
2018-05-08T17:20:21.245Z,32.30
2018-05-08T17:22:49.913Z,33.20
2018-05-08T17:25:19.573Z,34.80
2018-05-08T17:27:49.119Z,34.40
2018-05-08T17:30:16.627Z,35.30
2018-05-08T17:32:47.755Z,35.50
2018-05-08T17:35:26.227Z,34.10
2018-05-08T17:37:57.103Z,34.10
2018-05-08T17:40:26.420Z,35.20
2018-05-08T17:42:53.919Z,35.20
2018-05-08T17:45:22.232Z,35.10
2018-05-08T17:47:59.499Z,35.00
2018-05-08T17:50:29.151Z,35.60
2018-05-08T17:53:05.143Z,35.40
2018-05-08T17:55:32.672Z,35.10
2018-05-08T17:58:04.100Z,37.30
2018-05-08T18:00:33.761Z,37.30
2018-05-08T18:03:04.540Z,38.10
2018-05-08T18:05:33.255Z,38.50
2018-05-08T18:08:01.934Z,38.90
2018-05-08T18:10:31.249Z,38.90
2018-05-08T18:12:58.988Z,38.80
2018-05-08T18:15:32.025Z,39.00
2018-05-08T18:18:00.675Z,40.10
2018-05-08T18:20:28.879Z,41.00
2018-05-08T18:22:57.686Z,40.50
2018-05-08T18:25:28.322Z,42.10
2018-05-08T18:28:07.358Z,42.30
2018-05-08T18:30:38.855Z,41.90
2018-05-08T18:33:10.623Z,43.20
2018-05-08T18:35:46.006Z,43.40
2018-05-08T18:38:13.604Z,44.40
2018-05-08T18:40:41.275Z,44.60
2018-05-08T18:43:13.046Z,46.90
2018-05-08T18:45:42.650Z,47.80
2018-05-08T18:48:12.897Z,48.40
2018-05-08T18:50:42.510Z,48.40
2018-05-08T18:53:21.614Z,49.10
2018-05-08T18:56:01.367Z,50.40
2018-05-08T18:58:29.954Z,52.80
2018-05-08T19:00:59.351Z,52.50
2018-05-08T19:03:30.265Z,52.50
2018-05-08T19:06:00.722Z,52.60
2018-05-08T19:08:30.972Z,52.90
2018-05-08T19:11:05.295Z,52.80
2018-05-08T19:13:36.923Z,52.70
2018-05-08T19:16:06.213Z,54.10
2018-05-08T19:18:39.331Z,54.00
2018-05-08T19:21:06.963Z,55.20
2018-05-08T19:23:35.715Z,54.90
2018-05-08T19:26:05.321Z,55.60
2018-05-08T19:28:40.568Z,57.70
2018-05-08T19:31:14.344Z,58.50
2018-05-08T19:33:42.077Z,59.40
2018-05-08T19:36:15.165Z,60.40
2018-05-08T19:38:52.635Z,61.40
2018-05-08T19:41:20.147Z,61.10
2018-05-08T19:43:49.890Z,61.30
2018-05-08T19:46:27.914Z,62.60
2018-05-08T19:48:55.442Z,64.50
2018-05-08T19:51:24.092Z,65.20
2018-05-08T19:53:55.900Z,65.50
2018-05-08T19:56:27.590Z,63.80
2018-05-08T19:58:56.321Z,64.70
2018-05-08T20:01:26.535Z,66.40
2018-05-08T20:03:54.057Z,66.40
2018-05-08T20:06:24.816Z,66.60
2018-05-08T20:08:58.443Z,67.40
2018-05-08T20:11:26.255Z,67.90
2018-05-08T20:13:53.963Z,67.90
2018-05-08T20:16:22.306Z,67.30
2018-05-08T20:18:51.036Z,67.30
2018-05-08T20:21:23.087Z,66.80
2018-05-08T20:23:50.592Z,65.90
2018-05-08T20:26:19.235Z,66.90
2018-05-08T20:28:51.631Z,67.00
2018-05-08T20:31:20.295Z,67.00
2018-05-08T20:33:56.345Z,68.00
2018-05-08T20:36:28.476Z,68.10
2018-05-08T20:39:09.647Z,70.00
2018-05-08T20:41:41.200Z,69.80
2018-05-08T20:44:08.939Z,69.30
2018-05-08T20:46:37.613Z,69.00
2018-05-08T20:49:12.457Z,70.30
2018-05-08T20:51:41.731Z,70.00
2018-05-08T20:54:09.230Z,70.00
2018-05-08T20:56:42.481Z,70.90
2018-05-08T20:59:11.205Z,71.80
2018-05-08T21:01:42.051Z,70.60
2018-05-08T21:04:22.075Z,71.40
2018-05-08T21:06:50.771Z,72.10
2018-05-08T21:09:23.144Z,72.60
2018-05-08T21:11:53.375Z,71.70
2018-05-08T21:14:20.879Z,71.70
2018-05-08T21:16:48.570Z,71.80
2018-05-08T21:19:19.753Z,73.80
2018-05-08T21:21:55.457Z,72.50
2018-05-08T21:24:25.244Z,72.20
2018-05-08T21:26:59.314Z,72.60
2018-05-08T21:29:34.303Z,74.50
2018-05-08T21:32:02.858Z,74.50
2018-05-08T21:34:30.585Z,74.60
2018-05-08T21:37:02.341Z,75.00
2018-05-08T21:39:31.051Z,75.20
2018-05-08T21:41:59.419Z,75.30
2018-05-08T21:44:32.112Z,75.30
2018-05-08T21:47:00.784Z,75.70
2018-05-08T21:49:29.546Z,76.00
2018-05-08T21:52:02.885Z,76.10
2018-05-08T21:54:35.786Z,75.10
2018-05-08T21:57:06.592Z,75.30
2018-05-08T21:59:40.252Z,75.80
2018-05-08T22:02:18.976Z,76.00
2018-05-08T22:04:47.732Z,76.60
2018-05-08T22:07:20.978Z,77.70
2018-05-08T22:09:54.897Z,78.10
2018-05-08T22:12:22.410Z,78.40
2018-05-08T22:14:51.047Z,79.00
2018-05-08T22:17:35.055Z,79.00
2018-05-08T22:20:16.054Z,79.70
2018-05-08T22:22:49.381Z,79.90
2018-05-08T22:25:18.657Z,80.80
2018-05-08T22:27:54.415Z,80.80
2018-05-08T22:30:26.481Z,80.80
2018-05-08T22:32:58.575Z,81.00
2018-05-08T22:38:27.843Z,81.60
2018-05-08T22:40:55.374Z,82.30
2018-05-08T22:43:29.525Z,83.10
2018-05-08T22:46:03.501Z,82.50
2018-05-08T22:48:33.109Z,82.80
2018-05-08T22:51:02.681Z,83.30
2018-05-08T22:53:31.407Z,83.50
2018-05-08T22:56:00.074Z,83.70
2018-05-08T23:01:39.269Z,83.80
2018-05-08T23:04:19.007Z,84.80
2018-05-08T23:07:05.824Z,84.70
2018-05-08T23:09:44.294Z,85.10
2018-05-08T23:12:25.823Z,85.40
2018-05-08T23:15:05.003Z,85.40
2018-05-08T23:17:32.499Z,86.10
2018-05-08T23:20:01.149Z,86.00
2018-05-08T23:22:28.670Z,86.40
2018-05-08T23:24:56.376Z,85.80
2018-05-08T23:27:23.889Z,86.30
2018-05-08T23:29:53.465Z,86.30
2018-05-08T23:32:24.290Z,87.60
2018-05-08T23:35:04.600Z,86.90
2018-05-08T23:37:39.757Z,87.40
2018-05-08T23:40:08.506Z,87.20
2018-05-08T23:42:36.238Z,87.90
2018-05-08T23:45:05.089Z,88.10
2018-05-08T23:47:43.482Z,88.80
2018-05-08T23:50:14.581Z,89.30
2018-05-08T23:52:43.299Z,90.10
2018-05-08T23:55:11.989Z,89.80
2018-05-08T23:57:46.765Z,90.10
